createdAt,value
2023-09-01T00:02:46.321Z,99.90
2023-09-01T00:05:48.387Z,99.90
2023-09-01T00:08:50.478Z,99.60
2023-09-01T00:11:52.609Z,99.90
2023-09-01T00:14:54.900Z,99.70
2023-09-01T00:17:57.159Z,99.50
2023-09-01T00:21:03.487Z,99.50
2023-09-01T00:24:05.885Z,99.70
2023-09-01T00:27:08.065Z,99.70
2023-09-01T00:30:10.732Z,99.80
2023-09-01T00:33:12.782Z,99.90
2023-09-01T00:36:14.916Z,99.90
2023-09-01T00:39:16.980Z,99.80
2023-09-01T00:42:19.061Z,99.80
2023-09-01T00:45:21.148Z,99.90
2023-09-01T00:48:24.714Z,99.90
2023-09-01T00:51:27.259Z,99.90
2023-09-01T00:54:29.576Z,99.90
2023-09-01T00:57:31.751Z,99.90
2023-09-01T01:00:34.868Z,99.90
2023-09-01T01:03:37.508Z,99.90
2023-09-01T01:07:08.027Z,99.90
2023-09-01T01:10:33.004Z,99.90
2023-09-01T01:13:45.724Z,99.90
2023-09-01T01:16:48.532Z,99.90
2023-09-01T01:20:04.328Z,99.90
2023-09-01T01:23:11.271Z,99.90
2023-09-01T01:26:16.579Z,99.90
2023-09-01T01:29:18.919Z,99.90
2023-09-01T01:32:21.139Z,99.90
2023-09-01T01:35:45.105Z,99.90
2023-09-01T01:38:51.205Z,99.90
2023-09-01T01:41:57.775Z,99.90
2023-09-01T01:45:03.497Z,99.90
2023-09-01T01:48:05.978Z,99.90
2023-09-01T01:51:08.112Z,99.90
2023-09-01T01:54:10.295Z,99.90
2023-09-01T01:57:15.656Z,99.90
2023-09-01T02:00:18.049Z,99.90
2023-09-01T02:03:26.263Z,99.90
2023-09-01T02:06:30.979Z,99.90
2023-09-01T02:09:34.538Z,99.90
2023-09-01T02:12:36.843Z,99.90
2023-09-01T02:15:39.106Z,99.90
2023-09-01T02:18:41.528Z,99.90
2023-09-01T02:21:46.263Z,99.90
2023-09-01T02:24:48.354Z,99.90
2023-09-01T02:27:50.516Z,99.90
2023-09-01T02:30:52.746Z,99.90
2023-09-01T02:33:54.874Z,99.90
2023-09-01T02:36:57.016Z,99.90
2023-09-01T02:39:59.113Z,99.90
2023-09-01T02:43:01.191Z,99.90
2023-09-01T02:46:06.060Z,99.90
2023-09-01T02:49:08.255Z,99.90
2023-09-01T02:52:10.481Z,99.90
2023-09-01T02:55:13.456Z,99.90
2023-09-01T02:58:15.713Z,99.90
2023-09-01T03:01:19.816Z,99.90
2023-09-01T03:04:22.030Z,99.90
2023-09-01T03:07:25.377Z,99.90
2023-09-01T03:10:27.551Z,99.90
2023-09-01T03:13:29.874Z,99.90
2023-09-01T03:16:32.204Z,99.90
2023-09-01T03:19:34.451Z,99.90
2023-09-01T03:22:36.687Z,99.90
2023-09-01T03:25:38.748Z,99.90
2023-09-01T03:28:42.358Z,99.90
2023-09-01T03:31:44.546Z,99.90
2023-09-01T03:34:47.176Z,99.90
2023-09-01T03:37:49.520Z,99.90
2023-09-01T03:40:51.540Z,99.90
2023-09-01T03:43:53.719Z,99.90
2023-09-01T03:46:56.358Z,99.90
2023-09-01T03:49:58.515Z,99.90
2023-09-01T03:53:00.674Z,99.90
2023-09-01T03:56:09.495Z,99.90
2023-09-01T03:59:11.840Z,99.90
2023-09-01T04:02:13.953Z,99.90
2023-09-01T04:05:16.039Z,99.90
2023-09-01T04:08:19.618Z,99.90
2023-09-01T04:11:21.702Z,99.90
2023-09-01T04:14:23.819Z,99.90
2023-09-01T04:17:26.471Z,99.90
2023-09-01T04:20:28.538Z,99.90
2023-09-01T04:23:30.800Z,99.90
2023-09-01T04:26:32.903Z,99.90
2023-09-01T04:29:36.999Z,99.90
2023-09-01T04:32:39.280Z,99.90
2023-09-01T04:35:41.413Z,99.90
2023-09-01T04:38:43.660Z,99.90
2023-09-01T04:41:45.961Z,99.90
2023-09-01T04:44:48.058Z,99.90
2023-09-01T04:47:51.588Z,99.90
2023-09-01T04:50:53.792Z,99.90
2023-09-01T04:53:55.889Z,99.90
2023-09-01T04:56:58.092Z,99.90
2023-09-01T05:00:00.243Z,99.90
2023-09-01T05:03:03.216Z,99.90
2023-09-01T05:06:08.770Z,99.90
2023-09-01T05:09:10.907Z,99.90
2023-09-01T05:12:12.953Z,99.90
2023-09-01T05:15:15.189Z,99.90
2023-09-01T05:18:17.546Z,99.90
2023-09-01T05:21:20.006Z,99.90
2023-09-01T05:24:22.018Z,99.90
2023-09-01T05:27:24.252Z,99.90
2023-09-01T05:30:26.442Z,99.90
2023-09-01T05:33:28.541Z,99.90
2023-09-01T05:36:30.739Z,99.90
2023-09-01T05:39:32.821Z,99.90
2023-09-01T05:42:34.979Z,99.90
2023-09-01T05:45:37.050Z,99.90
2023-09-01T05:48:39.375Z,99.90
2023-09-01T05:51:41.581Z,99.90
2023-09-01T05:54:43.639Z,99.90
2023-09-01T05:57:45.715Z,99.90
2023-09-01T06:00:47.792Z,99.90
2023-09-01T06:03:50.304Z,99.90
2023-09-01T06:06:53.107Z,99.90
2023-09-01T06:09:55.196Z,99.90
2023-09-01T06:12:57.297Z,99.90
2023-09-01T06:15:59.616Z,99.90
2023-09-01T06:19:02.110Z,99.90
2023-09-01T06:22:04.511Z,99.90
2023-09-01T06:25:08.533Z,99.90
2023-09-01T06:28:10.653Z,99.90
2023-09-01T06:31:14.469Z,99.90
2023-09-01T06:34:16.590Z,99.90
2023-09-01T06:37:19.827Z,99.90
2023-09-01T06:40:21.896Z,99.90
2023-09-01T06:43:24.658Z,99.90
2023-09-01T06:46:27.652Z,99.90
2023-09-01T06:49:29.803Z,99.90
2023-09-01T06:52:31.886Z,99.50
2023-09-01T06:55:34.196Z,99.20
2023-09-01T06:58:36.510Z,99.10
2023-09-01T07:01:38.793Z,99.30
2023-09-01T07:04:40.961Z,99.50
2023-09-01T07:07:43.139Z,99.40
2023-09-01T07:10:45.231Z,99.00
2023-09-01T07:13:50.548Z,98.80
2023-09-01T07:16:52.691Z,99.40
2023-09-01T07:19:54.876Z,97.60
2023-09-01T07:22:56.967Z,96.60
2023-09-01T07:26:00.785Z,95.10
2023-09-01T07:29:02.885Z,93.80
2023-09-01T07:32:05.453Z,91.40
2023-09-01T07:35:08.203Z,90.00
2023-09-01T07:38:10.662Z,86.80
2023-09-01T07:41:12.853Z,82.30
2023-09-01T07:44:17.946Z,80.60
2023-09-01T07:47:20.065Z,79.60
2023-09-01T07:50:24.831Z,78.20
2023-09-01T07:53:26.896Z,76.00
2023-09-01T07:56:29.022Z,73.90
2023-09-01T07:59:31.636Z,74.00
2023-09-01T08:02:33.840Z,73.60
2023-09-01T08:05:36.091Z,72.30
2023-09-01T08:08:38.620Z,71.10
2023-09-01T08:11:41.663Z,70.80
2023-09-01T08:14:43.887Z,68.60
2023-09-01T08:17:47.053Z,69.00
2023-09-01T08:20:49.343Z,67.90
2023-09-01T08:23:52.209Z,66.60
2023-09-01T08:26:54.423Z,65.90
2023-09-01T08:29:58.185Z,66.10
2023-09-01T08:33:05.819Z,65.00
2023-09-01T08:36:10.362Z,65.00
2023-09-01T08:39:12.896Z,63.90
2023-09-01T08:42:17.727Z,62.60
2023-09-01T08:45:20.861Z,63.30
2023-09-01T08:48:23.470Z,62.90
2023-09-01T08:51:27.666Z,61.00
2023-09-01T08:54:31.728Z,60.00
2023-09-01T08:57:34.258Z,59.30
2023-09-01T09:00:36.308Z,58.60
2023-09-01T09:03:38.448Z,59.70
2023-09-01T09:06:41.599Z,57.50
2023-09-01T09:09:51.140Z,55.60
2023-09-01T09:12:53.797Z,55.70
2023-09-01T09:16:09.859Z,55.40
2023-09-01T09:19:17.983Z,55.40
2023-09-01T09:22:20.082Z,54.70
2023-09-01T09:25:36.659Z,54.20
2023-09-01T09:29:02.406Z,53.50
2023-09-01T09:32:23.833Z,51.40
2023-09-01T09:35:28.439Z,53.00
2023-09-01T09:38:44.502Z,52.60
2023-09-01T09:41:47.262Z,52.10
2023-09-01T09:44:50.963Z,51.30
2023-09-01T09:47:53.423Z,51.20
2023-09-01T09:50:56.727Z,50.80
2023-09-01T09:54:00.052Z,49.70
2023-09-01T09:57:15.225Z,47.90
2023-09-01T10:00:20.865Z,48.10
2023-09-01T10:03:26.556Z,48.10
2023-09-01T10:06:29.223Z,46.00
2023-09-01T10:09:32.492Z,46.90
2023-09-01T10:12:34.853Z,46.80
2023-09-01T10:15:40.379Z,47.60
2023-09-01T10:18:48.622Z,48.80
2023-09-01T10:21:51.569Z,47.10
2023-09-01T10:25:16.729Z,46.80
2023-09-01T10:28:21.038Z,46.60
2023-09-01T10:31:24.867Z,43.90
2023-09-01T10:34:29.564Z,42.70
2023-09-01T10:37:32.186Z,42.90
2023-09-01T10:41:09.875Z,44.90
2023-09-01T10:44:12.117Z,43.00
2023-09-01T10:47:32.759Z,44.00
2023-09-01T10:50:35.618Z,45.50
2023-09-01T10:53:38.622Z,47.90
2023-09-01T10:56:55.572Z,44.00
2023-09-01T10:59:57.649Z,44.30
2023-09-01T11:03:31.365Z,44.70
2023-09-01T11:06:59.534Z,44.30
2023-09-01T11:10:01.721Z,43.30
2023-09-01T11:13:20.461Z,43.30
2023-09-01T11:16:25.620Z,44.40
2023-09-01T11:19:28.381Z,45.00
2023-09-01T11:22:30.484Z,46.60
2023-09-01T11:25:33.955Z,46.80
2023-09-01T11:28:36.770Z,50.50
2023-09-01T11:31:43.791Z,51.00
2023-09-01T11:34:46.135Z,52.70
2023-09-01T11:37:48.226Z,53.20
2023-09-01T11:40:52.165Z,55.60
2023-09-01T11:43:57.587Z,57.20
2023-09-01T11:46:59.749Z,57.20
2023-09-01T11:50:02.403Z,58.70
2023-09-01T11:53:04.761Z,57.70
2023-09-01T11:56:23.375Z,57.60
2023-09-01T11:59:33.775Z,57.20
2023-09-01T12:02:39.161Z,57.00
2023-09-01T12:05:42.187Z,55.70
2023-09-01T12:08:44.929Z,58.30
2023-09-01T12:11:54.954Z,60.00
2023-09-01T12:15:05.340Z,59.70
2023-09-01T12:18:30.309Z,62.20
2023-09-01T12:21:32.517Z,62.40
2023-09-01T12:24:34.691Z,61.70
2023-09-01T12:27:36.839Z,61.60
2023-09-01T12:30:38.896Z,62.90
2023-09-01T12:33:41.641Z,62.50
2023-09-01T12:36:44.335Z,62.10
2023-09-01T12:39:46.518Z,63.10
2023-09-01T12:42:48.670Z,61.70
2023-09-01T12:45:50.850Z,62.30
2023-09-01T12:48:52.925Z,62.10
2023-09-01T12:51:55.083Z,62.00
2023-09-01T12:54:58.722Z,61.80
2023-09-01T12:58:00.675Z,61.20
2023-09-01T13:01:07.180Z,60.90
2023-09-01T13:04:09.587Z,60.50
2023-09-01T13:07:12.957Z,61.40
2023-09-01T13:10:16.432Z,61.20
2023-09-01T13:13:20.033Z,61.50
2023-09-01T13:16:27.789Z,61.30
2023-09-01T13:19:30.058Z,61.10
2023-09-01T13:22:32.957Z,61.60
2023-09-01T13:25:35.142Z,62.60
2023-09-01T13:28:37.520Z,63.20
2023-09-01T13:31:39.662Z,63.60
2023-09-01T13:34:42.170Z,63.80
2023-09-01T13:37:44.182Z,64.50
2023-09-01T13:40:54.380Z,66.00
2023-09-01T13:43:56.489Z,65.50
2023-09-01T13:46:58.656Z,65.30
2023-09-01T13:50:00.960Z,64.50
2023-09-01T13:53:03.106Z,63.70
2023-09-01T13:56:05.477Z,63.50
2023-09-01T13:59:07.579Z,63.50
2023-09-01T14:02:09.740Z,63.50
2023-09-01T14:05:12.013Z,63.40
2023-09-01T14:08:14.154Z,63.20
2023-09-01T14:11:16.385Z,63.40
2023-09-01T14:14:18.607Z,63.50
2023-09-01T14:17:20.754Z,62.40
2023-09-01T14:20:23.303Z,62.40
2023-09-01T14:23:27.116Z,63.30
2023-09-01T14:26:29.202Z,63.90
2023-09-01T14:29:36.422Z,64.20
2023-09-01T14:32:38.606Z,64.60
2023-09-01T14:35:49.117Z,64.50
2023-09-01T14:38:51.333Z,64.00
2023-09-01T14:41:53.985Z,64.30
2023-09-01T14:44:56.234Z,64.70
2023-09-01T14:47:58.448Z,65.10
2023-09-01T14:51:00.590Z,65.90
2023-09-01T14:54:02.833Z,66.40
2023-09-01T14:57:05.118Z,66.70
2023-09-01T15:00:08.716Z,66.70
2023-09-01T15:03:11.214Z,67.10
2023-09-01T15:06:13.482Z,67.60
2023-09-01T15:09:21.560Z,68.40
2023-09-01T15:12:23.978Z,68.80
2023-09-01T15:15:26.071Z,68.30
2023-09-01T15:18:28.424Z,68.80
2023-09-01T15:21:30.594Z,69.70
2023-09-01T15:24:32.833Z,69.50
2023-09-01T15:27:35.073Z,69.70
2023-09-01T15:30:37.212Z,69.50
2023-09-01T15:33:39.359Z,70.20
2023-09-01T15:36:41.560Z,70.30
2023-09-01T15:39:43.695Z,70.40
2023-09-01T15:42:47.506Z,70.90
2023-09-01T15:45:50.565Z,71.10
2023-09-01T15:48:52.714Z,70.90
2023-09-01T15:51:54.820Z,71.60
2023-09-01T15:54:56.981Z,71.80
2023-09-01T15:57:59.232Z,72.30
2023-09-01T16:01:18.587Z,73.30
2023-09-01T16:04:23.928Z,73.90
2023-09-01T16:07:26.243Z,73.80
2023-09-01T16:10:29.018Z,73.10
2023-09-01T16:13:31.515Z,73.00
2023-09-01T16:16:33.707Z,73.70
2023-09-01T16:19:35.873Z,74.10
2023-09-01T16:22:38.113Z,74.30
2023-09-01T16:25:40.332Z,74.30
2023-09-01T16:28:42.671Z,74.00
2023-09-01T16:31:44.896Z,73.50
2023-09-01T16:34:47.254Z,73.80
2023-09-01T16:37:49.794Z,73.80
2023-09-01T16:40:53.412Z,74.50
2023-09-01T16:43:55.655Z,75.20
2023-09-01T16:46:58.377Z,75.60
2023-09-01T16:50:00.804Z,76.50
2023-09-01T16:53:04.279Z,77.20
2023-09-01T16:56:06.366Z,76.90
2023-09-01T16:59:08.509Z,77.80
2023-09-01T17:02:10.812Z,79.50
2023-09-01T17:05:13.423Z,79.80
2023-09-01T17:08:16.029Z,80.10
2023-09-01T17:11:18.345Z,80.50
2023-09-01T17:14:20.476Z,80.60
2023-09-01T17:17:22.610Z,79.90
2023-09-01T17:20:27.845Z,80.10
2023-09-01T17:23:30.211Z,80.40
2023-09-01T17:26:32.321Z,80.60
2023-09-01T17:29:35.293Z,81.30
2023-09-01T17:32:37.726Z,82.30
2023-09-01T17:35:40.100Z,82.30
2023-09-01T17:38:42.400Z,82.90
2023-09-01T17:41:44.581Z,83.70
2023-09-01T17:44:46.659Z,83.70
2023-09-01T17:47:48.882Z,84.70
2023-09-01T17:50:51.342Z,86.90
2023-09-01T17:53:53.862Z,86.10
2023-09-01T17:56:56.565Z,86.60
2023-09-01T17:59:58.986Z,86.30
2023-09-01T18:03:02.795Z,86.10
2023-09-01T18:06:05.348Z,86.10
2023-09-01T18:09:07.699Z,86.10
2023-09-01T18:12:09.846Z,85.80
2023-09-01T18:15:12.036Z,85.50
2023-09-01T18:18:16.795Z,86.00
2023-09-01T18:21:18.942Z,85.50
2023-09-01T18:24:26.891Z,86.80
2023-09-01T18:27:32.084Z,87.30
2023-09-01T18:30:34.896Z,87.30
2023-09-01T18:33:41.317Z,87.40
2023-09-01T18:36:43.459Z,87.60
2023-09-01T18:39:47.502Z,87.50
2023-09-01T18:42:50.704Z,87.60
2023-09-01T18:45:54.163Z,87.10
2023-09-01T18:48:56.758Z,87.60
2023-09-01T18:52:02.123Z,87.90
2023-09-01T18:55:04.461Z,88.60
2023-09-01T18:58:13.239Z,88.80
2023-09-01T19:01:19.186Z,88.60
2023-09-01T19:04:21.422Z,89.30
2023-09-01T19:07:23.778Z,89.00
2023-09-01T19:10:25.915Z,89.80
2023-09-01T19:13:30.824Z,89.30
2023-09-01T19:16:34.863Z,89.50
2023-09-01T19:19:39.206Z,89.20
2023-09-01T19:22:41.407Z,89.30
2023-09-01T19:25:45.148Z,89.70
2023-09-01T19:28:48.094Z,89.70
2023-09-01T19:31:52.499Z,90.10
2023-09-01T19:34:54.724Z,90.20
2023-09-01T19:37:57.082Z,90.30
2023-09-01T19:41:00.398Z,90.30
2023-09-01T19:44:05.847Z,90.50
2023-09-01T19:47:19.623Z,90.80
2023-09-01T19:50:25.929Z,91.30
2023-09-01T19:53:31.484Z,91.10
2023-09-01T19:56:34.993Z,91.60
2023-09-01T19:59:38.214Z,91.60
2023-09-01T20:02:40.963Z,91.70
2023-09-01T20:05:43.254Z,91.90
2023-09-01T20:08:45.421Z,91.80
2023-09-01T20:11:47.584Z,92.00
2023-09-01T20:14:49.907Z,92.20
2023-09-01T20:17:56.723Z,92.20
2023-09-01T20:20:59.684Z,92.30
2023-09-01T20:24:01.841Z,92.40
2023-09-01T20:27:04.400Z,92.40
2023-09-01T20:30:07.191Z,92.90
2023-09-01T20:33:09.376Z,92.90
2023-09-01T20:36:11.577Z,93.00
2023-09-01T20:39:16.648Z,92.60
2023-09-01T20:42:19.297Z,92.90
2023-09-01T20:45:21.616Z,93.10
2023-09-01T20:48:23.780Z,93.00
2023-09-01T20:51:26.773Z,93.20
2023-09-01T20:54:28.929Z,93.60
2023-09-01T20:57:31.162Z,93.80
2023-09-01T21:00:33.204Z,94.10
2023-09-01T21:03:35.374Z,93.60
2023-09-01T21:06:37.576Z,93.90
2023-09-01T21:09:39.625Z,94.00
2023-09-01T21:12:41.875Z,94.20
2023-09-01T21:15:44.127Z,94.10
2023-09-01T21:18:47.055Z,94.00
2023-09-01T21:21:49.265Z,93.90
2023-09-01T21:24:51.391Z,94.00
2023-09-01T21:27:53.591Z,94.10
2023-09-01T21:30:55.697Z,94.20
2023-09-01T21:33:57.859Z,94.20
2023-09-01T21:37:00.538Z,94.20
2023-09-01T21:40:05.877Z,94.70
2023-09-01T21:43:08.011Z,94.60
2023-09-01T21:46:10.135Z,94.80
2023-09-01T21:49:12.264Z,95.10
2023-09-01T21:52:14.444Z,95.10
2023-09-01T21:55:16.484Z,95.00
2023-09-01T21:58:18.576Z,95.20
2023-09-01T22:01:20.991Z,95.20
2023-09-01T22:04:23.120Z,95.40
2023-09-01T22:07:25.199Z,95.50
2023-09-01T22:10:27.341Z,95.70
2023-09-01T22:13:29.423Z,95.80
2023-09-01T22:16:32.011Z,96.50
2023-09-01T22:19:34.106Z,95.90
2023-09-01T22:22:36.378Z,96.40
2023-09-01T22:25:38.611Z,96.30
2023-09-01T22:28:40.876Z,96.60
2023-09-01T22:31:42.938Z,96.60
2023-09-01T22:34:45.665Z,96.90
2023-09-01T22:37:50.455Z,96.90
2023-09-01T22:41:00.856Z,96.90
2023-09-01T22:44:02.961Z,97.10
2023-09-01T22:47:05.098Z,97.30
2023-09-01T22:50:08.258Z,97.20
2023-09-01T22:53:10.577Z,97.50
2023-09-01T22:56:13.317Z,97.30
2023-09-01T22:59:15.418Z,97.50
2023-09-01T23:02:17.570Z,97.40
2023-09-01T23:05:19.671Z,98.10
2023-09-01T23:08:21.761Z,98.30
2023-09-01T23:11:23.893Z,98.70
2023-09-01T23:14:25.975Z,99.10
2023-09-01T23:17:28.118Z,99.40
2023-09-01T23:20:32.753Z,99.00
2023-09-01T23:23:34.948Z,99.10
2023-09-01T23:26:37.256Z,99.30
2023-09-01T23:29:39.710Z,99.20
2023-09-01T23:32:41.951Z,99.00
2023-09-01T23:35:44.317Z,99.00
2023-09-01T23:38:46.481Z,98.80
2023-09-01T23:41:48.697Z,99.20
2023-09-01T23:44:51.013Z,98.90
2023-09-01T23:47:55.804Z,99.70
2023-09-01T23:50:58.004Z,99.50
2023-09-01T23:54:00.174Z,99.40
2023-09-01T23:57:02.226Z,99.30
